Terminal Aerodrome Forecast
Issued by NWS

Home | Current Version | Previous Version | Text Only | Print | Product List | Glossary On
Versions: 1 2 3 4 5 6 7 8 9 10 11 12 13 14 15 16 17
000
FTUS41 KCAR 260520
TAFBHB
TAF
KBHB 260520Z 2606/2706 08018G26KT P6SM -RA OVC005
      TEMPO 2612/2613 1SM -RA OVC004
     FM261500 06012KT 3SM -RA OVC003
     FM270400 36009KT P6SM OVC003=

USA.gov is the U.S. government's official web portal to all federal, state and local government web resources and services.